Aérodrome :
LOGIN :

S'inscrire | Disclaimer

   EN    FR    IT 

 










Légende :    VFR   VFR Marginal   IFR   IFR Intensif   IFR Très Intensif
Visi : 
Plafond : 
>= 8 km
>= 3000ft
5 à 8 km
1000 à 3000 ft
1500m à 5 km
500 à 1000 ft
800 à 1500m
200 à 500 ft
< 800m
< 200 ft
Symboles :   Orages  Brouillard  Fortes neiges  Fortes précipitations  Vent > 20 kt
SIGMETs :   Divers  Orages  Givrage  Turbulence  Onde Orograph.  Cendres Volcan.







- Altitude de l'aérodrome : 200 ft


EBBL - Klein Brogel AB

DERNIER METAR :
  • 171055Z AUTO 23006KT 0350 FG OVC001/// 01/01 Q1024 RED

METARs EXPIRÉS :
  • 171025Z AUTO 23006KT 0250 FG OVC001/// 01/01 Q1024 RED
  • 170955Z AUTO 23005KT 0250 FG OVC002/// 01/01 Q1024 RED
  • 170925Z AUTO 24005KT 0200 FG OVC002/// 00/00 Q1024 RED
  • 170855Z AUTO 23005KT 0250 FG VV002/// 00/00 Q1023 RED
  • 170825Z AUTO 23005KT 0200 FG VV002/// 00/00 Q1023 RED

Prévision TAF périmée.
Pas de NOTAMs connus pour ce terrain.



MET'MAP, la Météo Aéronautique d'un coup d'oeil ! - Copyright ORBIFLY Décembre 2007 - Disclaimer

ORBIFLY MET'MAP TEAM :

Programmation & Développement : Alexandra Zaïnal
Conception & Développement : Baudouin d'Aumeries
Co-Programmation & Développement : Marc-Olivier Méhu
Soutien technique & logistique : Manuel Goepfert

Contact : metmap@orbifly.com




SOURCES & CREDITS :

   NOAA